createdAt,value
2022-11-06T00:03:48.217Z,1011.856
2022-11-06T00:13:53.544Z,1011.813
2022-11-06T00:18:56.189Z,1011.816
2022-11-06T00:23:58.836Z,1011.803
2022-11-06T00:29:01.449Z,1011.719
2022-11-06T00:34:04.185Z,1011.744
2022-11-06T00:39:06.848Z,1011.705
2022-11-06T00:44:09.387Z,1011.758
2022-11-06T00:49:11.971Z,1011.783
2022-11-06T00:54:14.389Z,1011.781
2022-11-06T00:59:17.119Z,1011.809
2022-11-06T01:04:19.730Z,1011.767
2022-11-06T01:09:22.430Z,1011.742
2022-11-06T01:14:25.102Z,1011.674
2022-11-06T01:19:30.804Z,1011.672
2022-11-06T01:24:33.374Z,1011.6
2022-11-06T01:29:35.857Z,1011.559
2022-11-06T01:34:38.726Z,1011.527
2022-11-06T01:39:41.362Z,1011.431
2022-11-06T01:44:44.099Z,1011.405
2022-11-06T02:25:05.740Z,1011.026
2022-11-06T02:30:08.341Z,1010.973
2022-11-06T02:35:10.922Z,1010.89
2022-11-06T02:40:16.263Z,1010.95
2022-11-06T02:45:18.813Z,1010.929
2022-11-06T02:50:21.415Z,1010.973
2022-11-06T02:55:24.141Z,1010.847
2022-11-06T03:00:26.869Z,1010.802
2022-11-06T03:05:29.400Z,1010.929
2022-11-06T03:10:31.978Z,1011.003
2022-11-06T03:15:35.698Z,1010.926
2022-11-06T03:20:38.231Z,1010.892
2022-11-06T03:25:43.626Z,1010.931
2022-11-06T03:30:46.424Z,1010.905
2022-11-06T03:40:54.986Z,1010.869
2022-11-06T03:45:57.456Z,1010.849
2022-11-06T03:51:00.245Z,1010.81
2022-11-06T03:56:02.755Z,1010.679
2022-11-06T04:01:05.634Z,1010.71
2022-11-06T04:06:08.454Z,1010.72
2022-11-06T04:11:11.157Z,1010.553
2022-11-06T04:16:13.958Z,1010.633
2022-11-06T04:21:16.801Z,1010.577
2022-11-06T04:31:22.460Z,1010.528
2022-11-06T04:36:25.043Z,1010.58
2022-11-06T04:41:28.128Z,1010.644
2022-11-06T04:46:30.657Z,1010.625
2022-11-06T04:51:33.346Z,1010.606
2022-11-06T04:56:42.979Z,1010.571
2022-11-06T05:01:41.861Z,1010.369
2022-11-06T05:06:44.409Z,1010.393
2022-11-06T05:11:47.009Z,1010.385
2022-11-06T05:16:50.048Z,1010.348
2022-11-06T05:21:55.799Z,1010.391
2022-11-06T05:26:59.723Z,1010.419
2022-11-06T05:32:01.094Z,1010.359
2022-11-06T05:37:03.666Z,1010.32
2022-11-06T05:47:08.817Z,1010.367
2022-11-06T05:52:14.539Z,1010.388
2022-11-06T05:57:17.314Z,1010.435
2022-11-06T06:02:19.925Z,1010.4
2022-11-06T06:07:25.353Z,1010.39
2022-11-06T06:12:28.056Z,1010.336
2022-11-06T06:17:30.594Z,1010.345
2022-11-06T06:22:33.273Z,1010.39
2022-11-06T06:27:35.944Z,1010.411
2022-11-06T06:32:38.909Z,1010.528
2022-11-06T06:37:41.274Z,1010.502
2022-11-06T06:42:43.940Z,1010.519
2022-11-06T06:47:46.972Z,1010.577
2022-11-06T06:52:49.952Z,1010.516
2022-11-06T06:57:52.497Z,1010.513
2022-11-06T07:07:58.073Z,1010.552
2022-11-06T07:13:00.662Z,1010.574
2022-11-06T07:18:03.335Z,1010.518
2022-11-06T07:28:08.561Z,1010.523
2022-11-06T07:33:11.302Z,1010.503
2022-11-06T07:38:14.020Z,1010.512
2022-11-06T07:43:18.923Z,1010.471
2022-11-06T07:48:21.547Z,1010.426
2022-11-06T07:53:24.748Z,1010.533
2022-11-06T07:58:27.072Z,1010.455
2022-11-06T08:03:29.462Z,1010.416
2022-11-06T08:08:32.239Z,1010.468
2022-11-06T08:13:34.909Z,1010.337
2022-11-06T08:23:40.321Z,1010.25
2022-11-06T08:28:43.081Z,1010.224
2022-11-06T08:38:48.452Z,1010.173
2022-11-06T08:43:51.301Z,1010.053
2022-11-06T08:48:53.930Z,1010.017
2022-11-06T08:53:56.814Z,1009.93
2022-11-06T08:58:59.874Z,1010.106
2022-11-06T09:04:02.350Z,1010.053
2022-11-06T09:09:04.997Z,1009.987
2022-11-06T09:14:07.316Z,1009.914
2022-11-06T09:19:10.015Z,1009.915
2022-11-06T09:24:12.697Z,1009.933
2022-11-06T09:29:15.845Z,1009.963
2022-11-06T09:34:18.269Z,1009.978
2022-11-06T09:39:20.994Z,1010.017
2022-11-06T09:44:23.756Z,1009.85
2022-11-06T09:49:29.349Z,1009.885
2022-11-06T09:54:32.224Z,1009.994
2022-11-06T09:59:35.136Z,1009.955
2022-11-06T10:04:37.963Z,1009.939
2022-11-06T10:09:40.578Z,1009.885
2022-11-06T10:14:43.293Z,1009.839
2022-11-06T10:19:45.963Z,1009.697
2022-11-06T10:24:48.541Z,1009.727
2022-11-06T10:29:51.291Z,1009.578
2022-11-06T10:34:53.791Z,1009.528
2022-11-06T10:40:02.435Z,1009.465
2022-11-06T10:45:05.233Z,1009.353
2022-11-06T10:50:08.063Z,1009.38
2022-11-06T11:00:13.402Z,1009.167
2022-11-06T11:05:16.629Z,1009.104
2022-11-06T11:10:19.471Z,1009.044
2022-11-06T11:15:22.119Z,1009.044
2022-11-06T11:20:24.925Z,1008.981
2022-11-06T11:25:28.115Z,1008.979
2022-11-06T11:30:30.823Z,1008.927
2022-11-06T11:35:36.233Z,1008.993
2022-11-06T11:40:38.983Z,1008.892
2022-11-06T11:45:41.517Z,1008.828
2022-11-06T11:50:44.194Z,1008.736
2022-11-06T11:55:46.782Z,1008.803
2022-11-06T12:00:52.204Z,1008.675
2022-11-06T12:05:54.893Z,1008.647
2022-11-06T12:10:57.497Z,1008.5
2022-11-06T12:21:11.521Z,1008.369
2022-11-06T12:26:14.184Z,1008.375
2022-11-06T12:31:16.830Z,1008.197
2022-11-06T12:36:19.761Z,1008.159
2022-11-06T12:41:22.203Z,1008.173
2022-11-06T12:46:25.354Z,1008.225
2022-11-06T12:51:28.099Z,1008.172
2022-11-06T12:56:30.714Z,1008.068
2022-11-06T13:01:33.543Z,1008.026
2022-11-06T13:11:38.752Z,1007.926
2022-11-06T13:16:41.350Z,1007.895
2022-11-06T13:21:44.099Z,1007.911
2022-11-06T13:26:46.597Z,1007.786
2022-11-06T13:31:49.168Z,1007.748
2022-11-06T13:36:51.892Z,1007.538
2022-11-06T13:41:54.628Z,1007.547
2022-11-06T13:46:57.270Z,1007.444
2022-11-06T13:51:59.878Z,1007.364
2022-11-06T13:57:02.471Z,1007.41
2022-11-06T14:07:07.531Z,1007.483
2022-11-06T14:12:14.902Z,1007.36
2022-11-06T14:17:13.087Z,1007.357
2022-11-06T14:22:15.908Z,1007.34
2022-11-06T14:27:18.827Z,1007.317
2022-11-06T14:32:21.357Z,1007.255
2022-11-06T14:37:28.244Z,1007.157
2022-11-06T14:42:27.530Z,1007.217
2022-11-06T14:47:29.606Z,1007.022
2022-11-06T14:52:32.192Z,1006.952
2022-11-06T14:57:34.803Z,1006.847
2022-11-06T15:02:37.397Z,1006.839
2022-11-06T15:12:42.617Z,1006.872
2022-11-06T15:17:44.781Z,1006.868
2022-11-06T15:22:47.362Z,1006.865
2022-11-06T15:27:50.245Z,1006.886
2022-11-06T15:32:52.921Z,1006.873
2022-11-06T15:37:56.081Z,1006.881
2022-11-06T15:42:58.719Z,1006.912
2022-11-06T15:48:01.254Z,1006.848
2022-11-06T15:53:03.785Z,1006.808
2022-11-06T15:58:06.296Z,1006.709
2022-11-06T16:03:09.124Z,1006.591
2022-11-06T16:08:54.501Z,1006.495
2022-11-06T16:13:57.576Z,1006.409
2022-11-06T16:24:30.469Z,1006.289
2022-11-06T16:29:33.277Z,1006.25
2022-11-06T16:34:35.607Z,1006.297
2022-11-06T16:39:48.634Z,1006.238
2022-11-06T16:44:40.884Z,1006.24
2022-11-06T16:49:44.977Z,1006.227
2022-11-06T16:54:46.405Z,1006.225
2022-11-06T16:59:48.814Z,1006.239
2022-11-06T17:04:51.438Z,1006.212
2022-11-06T17:09:53.996Z,1006.265
2022-11-06T17:14:56.770Z,1006.248
2022-11-06T17:19:59.207Z,1006.147
2022-11-06T17:25:01.736Z,1006.19
2022-11-06T17:30:04.556Z,1006.182
2022-11-06T17:35:07.011Z,1006.117
2022-11-06T17:40:09.736Z,1006.138
2022-11-06T17:45:12.511Z,1006.196
2022-11-06T17:50:14.939Z,1006.198
2022-11-06T17:55:20.341Z,1006.161
2022-11-06T18:00:23.183Z,1006.028
2022-11-06T18:05:25.857Z,1005.98
2022-11-06T18:10:34.901Z,1006.084
2022-11-06T18:15:37.775Z,1006.064
2022-11-06T18:20:40.258Z,1005.964
2022-11-06T18:25:42.849Z,1005.904
2022-11-06T18:30:45.546Z,1005.974
2022-11-06T18:35:48.281Z,1006.014
2022-11-06T18:40:51.810Z,1005.809
2022-11-06T18:45:53.856Z,1005.752
2022-11-06T18:50:56.519Z,1005.76
2022-11-06T18:55:59.068Z,1005.812
2022-11-06T19:01:02.226Z,1005.808
2022-11-06T19:06:03.935Z,1005.767
2022-11-06T19:11:06.588Z,1005.635
2022-11-06T19:21:12.057Z,1005.747
2022-11-06T19:31:16.956Z,1005.712
2022-11-06T19:36:19.385Z,1005.735
2022-11-06T19:41:22.144Z,1005.758
2022-11-06T19:46:28.378Z,1005.745
2022-11-06T19:51:27.773Z,1005.691
2022-11-06T19:56:30.497Z,1005.665
2022-11-06T20:01:33.611Z,1005.656
2022-11-06T20:06:36.625Z,1005.616
2022-11-06T20:11:38.956Z,1005.521
2022-11-06T20:16:41.748Z,1005.516
2022-11-06T20:21:44.586Z,1005.508
2022-11-06T20:26:47.160Z,1005.407
2022-11-06T20:31:49.691Z,1005.435
2022-11-06T20:36:52.503Z,1005.422
2022-11-06T20:41:54.850Z,1005.38
2022-11-06T20:46:57.531Z,1005.284
2022-11-06T20:52:13.531Z,1005.145
2022-11-06T20:57:02.752Z,1005.101
2022-11-06T21:02:05.750Z,1004.953
2022-11-06T21:07:08.210Z,1004.888
2022-11-06T21:12:10.488Z,1004.79
2022-11-06T21:17:13.237Z,1004.821
2022-11-06T21:27:18.913Z,1004.677
2022-11-06T21:32:21.488Z,1004.607
2022-11-06T21:37:24.182Z,1004.554
2022-11-06T21:42:26.859Z,1004.534
2022-11-06T21:47:29.495Z,1004.442
2022-11-06T21:52:32.130Z,1004.456
2022-11-06T21:57:34.709Z,1004.491
2022-11-06T22:02:40.612Z,1004.398
2022-11-06T22:07:43.283Z,1004.321
2022-11-06T22:12:45.792Z,1004.38
2022-11-06T22:17:48.398Z,1004.346
2022-11-06T22:22:50.933Z,1004.257
2022-11-06T22:27:53.877Z,1004.326
2022-11-06T22:32:56.510Z,1004.138
2022-11-06T22:37:59.129Z,1004.21
2022-11-06T22:43:01.840Z,1004.239
2022-11-06T22:48:04.822Z,1004.287
2022-11-06T22:53:12.116Z,1004.294
2022-11-06T22:58:10.100Z,1004.289
2022-11-06T23:03:13.059Z,1004.328
2022-11-06T23:08:15.432Z,1004.303
2022-11-06T23:13:18.046Z,1004.381
2022-11-06T23:18:20.869Z,1004.346
2022-11-06T23:23:23.730Z,1004.365
2022-11-06T23:28:26.468Z,1004.323
2022-11-06T23:33:29.132Z,1004.284
2022-11-06T23:38:31.807Z,1004.332
2022-11-06T23:43:34.436Z,1004.276
2022-11-06T23:48:37.018Z,1004.22
2022-11-06T23:53:39.593Z,1004.189
2022-11-06T23:58:42.326Z,1004.138
